sensor_id;sensor_type;location;lat;lon;timestamp;pressure;altitude;pressure_sealevel;temperature;humidity
77574;BME280;66710;48.868;9.080;2024-03-07T00:01:12;98564.09;;;4.61;98.10
77574;BME280;66710;48.868;9.080;2024-03-07T00:03:37;98561.00;;;4.57;97.75
77574;BME280;66710;48.868;9.080;2024-03-07T00:06:04;98557.25;;;4.52;98.03
77574;BME280;66710;48.868;9.080;2024-03-07T00:08:29;98566.03;;;4.52;97.57
77574;BME280;66710;48.868;9.080;2024-03-07T00:10:55;98563.13;;;4.47;97.92
77574;BME280;66710;48.868;9.080;2024-03-07T00:13:20;98564.69;;;4.42;97.23
77574;BME280;66710;48.868;9.080;2024-03-07T00:15:46;98563.78;;;4.35;97.58
77574;BME280;66710;48.868;9.080;2024-03-07T00:18:11;98562.97;;;4.34;97.41
77574;BME280;66710;48.868;9.080;2024-03-07T00:20:36;98559.22;;;4.28;97.54
77574;BME280;66710;48.868;9.080;2024-03-07T00:23:03;98563.09;;;4.26;97.03
77574;BME280;66710;48.868;9.080;2024-03-07T00:25:28;98561.25;;;4.26;96.93
77574;BME280;66710;48.868;9.080;2024-03-07T00:27:56;98559.56;;;4.25;96.33
77574;BME280;66710;48.868;9.080;2024-03-07T00:30:27;98566.38;;;4.28;95.02
77574;BME280;66710;48.868;9.080;2024-03-07T00:32:54;98560.22;;;4.27;95.30
77574;BME280;66710;48.868;9.080;2024-03-07T00:35:21;98557.09;;;4.24;94.47
77574;BME280;66710;48.868;9.080;2024-03-07T00:37:46;98560.97;;;4.21;93.07
77574;BME280;66710;48.868;9.080;2024-03-07T00:40:11;98558.31;;;4.21;92.60
77574;BME280;66710;48.868;9.080;2024-03-07T00:42:37;98554.25;;;4.25;89.18
77574;BME280;66710;48.868;9.080;2024-03-07T00:45:02;98551.16;;;4.22;89.39
77574;BME280;66710;48.868;9.080;2024-03-07T00:47:29;98553.53;;;4.17;90.33
77574;BME280;66710;48.868;9.080;2024-03-07T00:49:54;98555.56;;;4.15;90.43
77574;BME280;66710;48.868;9.080;2024-03-07T00:52:19;98558.78;;;4.10;90.53
77574;BME280;66710;48.868;9.080;2024-03-07T00:54:45;98550.16;;;4.08;90.31
77574;BME280;66710;48.868;9.080;2024-03-07T00:57:10;98553.28;;;4.12;89.66
77574;BME280;66710;48.868;9.080;2024-03-07T00:59:35;98547.88;;;4.05;90.45
77574;BME280;66710;48.868;9.080;2024-03-07T01:02:01;98548.25;;;4.02;89.07
77574;BME280;66710;48.868;9.080;2024-03-07T01:04:27;98548.06;;;4.03;87.96
77574;BME280;66710;48.868;9.080;2024-03-07T01:06:59;98541.66;;;3.98;87.22
77574;BME280;66710;48.868;9.080;2024-03-07T01:09:25;98546.97;;;3.98;86.60
77574;BME280;66710;48.868;9.080;2024-03-07T01:11:53;98547.03;;;3.90;87.38
77574;BME280;66710;48.868;9.080;2024-03-07T01:14:18;98534.03;;;3.80;87.13
77574;BME280;66710;48.868;9.080;2024-03-07T01:16:43;98544.47;;;3.82;86.72
77574;BME280;66710;48.868;9.080;2024-03-07T01:19:09;98533.97;;;3.73;87.01
77574;BME280;66710;48.868;9.080;2024-03-07T01:21:34;98536.13;;;3.70;87.06
77574;BME280;66710;48.868;9.080;2024-03-07T01:24:00;98538.72;;;3.63;87.49
77574;BME280;66710;48.868;9.080;2024-03-07T01:26:28;98536.44;;;3.60;87.58
77574;BME280;66710;48.868;9.080;2024-03-07T01:28:53;98537.16;;;3.54;86.88
77574;BME280;66710;48.868;9.080;2024-03-07T01:31:20;98536.50;;;3.52;86.84
77574;BME280;66710;48.868;9.080;2024-03-07T01:33:46;98534.22;;;3.49;86.59
77574;BME280;66710;48.868;9.080;2024-03-07T01:36:11;98532.72;;;3.46;87.20
77574;BME280;66710;48.868;9.080;2024-03-07T01:38:36;98531.47;;;3.42;86.83
77574;BME280;66710;48.868;9.080;2024-03-07T01:41:01;98523.66;;;3.41;86.52
77574;BME280;66710;48.868;9.080;2024-03-07T01:43:27;98523.31;;;3.44;85.74
77574;BME280;66710;48.868;9.080;2024-03-07T01:45:56;98521.81;;;3.41;86.15
77574;BME280;66710;48.868;9.080;2024-03-07T01:48:28;98519.53;;;3.38;85.92
77574;BME280;66710;48.868;9.080;2024-03-07T01:50:57;98515.78;;;3.33;87.19
77574;BME280;66710;48.868;9.080;2024-03-07T01:53:24;98512.50;;;3.31;86.84
77574;BME280;66710;48.868;9.080;2024-03-07T01:55:50;98510.81;;;3.30;86.01
77574;BME280;66710;48.868;9.080;2024-03-07T01:58:18;98510.81;;;3.30;85.96
77574;BME280;66710;48.868;9.080;2024-03-07T02:00:44;98501.09;;;3.22;85.97
77574;BME280;66710;48.868;9.080;2024-03-07T02:03:10;98505.69;;;3.13;87.15
77574;BME280;66710;48.868;9.080;2024-03-07T02:05:35;98506.22;;;3.09;86.45
77574;BME280;66710;48.868;9.080;2024-03-07T02:08:01;98505.91;;;3.04;86.99
77574;BME280;66710;48.868;9.080;2024-03-07T02:10:29;98503.63;;;3.01;87.04
77574;BME280;66710;48.868;9.080;2024-03-07T02:12:54;98500.22;;;2.92;87.28
77574;BME280;66710;48.868;9.080;2024-03-07T02:15:19;98498.28;;;2.86;88.05
77574;BME280;66710;48.868;9.080;2024-03-07T02:17:44;98499.63;;;2.82;87.63
77574;BME280;66710;48.868;9.080;2024-03-07T02:20:10;98503.19;;;2.74;87.85
77574;BME280;66710;48.868;9.080;2024-03-07T02:22:37;98499.09;;;2.63;89.01
77574;BME280;66710;48.868;9.080;2024-03-07T02:25:02;98497.81;;;2.59;88.84
77574;BME280;66710;48.868;9.080;2024-03-07T02:27:27;98491.59;;;2.52;89.96
77574;BME280;66710;48.868;9.080;2024-03-07T02:29:53;98486.38;;;2.36;89.84
77574;BME280;66710;48.868;9.080;2024-03-07T02:32:18;98486.19;;;2.37;90.58
77574;BME280;66710;48.868;9.080;2024-03-07T02:34:44;98480.13;;;2.29;90.61
77574;BME280;66710;48.868;9.080;2024-03-07T02:37:09;98484.81;;;2.19;90.88
77574;BME280;66710;48.868;9.080;2024-03-07T02:39:36;98479.03;;;2.15;92.45
77574;BME280;66710;48.868;9.080;2024-03-07T02:42:02;98484.22;;;2.08;92.45
77574;BME280;66710;48.868;9.080;2024-03-07T02:44:27;98480.91;;;2.06;92.88
77574;BME280;66710;48.868;9.080;2024-03-07T02:46:53;98471.84;;;2.01;93.38
77574;BME280;66710;48.868;9.080;2024-03-07T02:49:19;98475.06;;;1.88;92.89
77574;BME280;66710;48.868;9.080;2024-03-07T02:51:46;98474.22;;;1.87;93.51
77574;BME280;66710;48.868;9.080;2024-03-07T02:54:11;98472.91;;;1.83;93.07
77574;BME280;66710;48.868;9.080;2024-03-07T02:56:37;98474.75;;;1.83;94.62
77574;BME280;66710;48.868;9.080;2024-03-07T02:59:02;98469.41;;;1.91;94.60
77574;BME280;66710;48.868;9.080;2024-03-07T03:01:28;98467.63;;;1.83;93.74
77574;BME280;66710;48.868;9.080;2024-03-07T03:03:53;98456.53;;;1.80;94.31
77574;BME280;66710;48.868;9.080;2024-03-07T03:06:18;98463.66;;;1.79;94.74
77574;BME280;66710;48.868;9.080;2024-03-07T03:08:48;98463.22;;;1.68;93.95
77574;BME280;66710;48.868;9.080;2024-03-07T03:11:13;98472.34;;;1.65;93.50
77574;BME280;66710;48.868;9.080;2024-03-07T03:13:42;98457.91;;;1.68;95.26
77574;BME280;66710;48.868;9.080;2024-03-07T03:16:08;98469.00;;;1.71;94.41
77574;BME280;66710;48.868;9.080;2024-03-07T03:18:34;98468.50;;;1.76;93.97
77574;BME280;66710;48.868;9.080;2024-03-07T03:21:00;98461.91;;;1.64;94.52
77574;BME280;66710;48.868;9.080;2024-03-07T03:23:25;98452.31;;;1.63;94.93
77574;BME280;66710;48.868;9.080;2024-03-07T03:25:50;98464.44;;;1.57;94.39
77574;BME280;66710;48.868;9.080;2024-03-07T03:28:16;98461.09;;;1.55;93.94
77574;BME280;66710;48.868;9.080;2024-03-07T03:30:44;98455.94;;;1.61;95.28
77574;BME280;66710;48.868;9.080;2024-03-07T03:33:10;98465.97;;;1.35;94.33
77574;BME280;66710;48.868;9.080;2024-03-07T03:35:36;98469.09;;;1.47;95.54
77574;BME280;66710;48.868;9.080;2024-03-07T03:38:01;98468.94;;;1.40;95.43
77574;BME280;66710;48.868;9.080;2024-03-07T03:40:27;98465.00;;;1.28;95.42
77574;BME280;66710;48.868;9.080;2024-03-07T03:42:52;98463.00;;;1.30;95.56
77574;BME280;66710;48.868;9.080;2024-03-07T03:45:18;98464.00;;;1.29;95.92
77574;BME280;66710;48.868;9.080;2024-03-07T03:47:44;98459.72;;;1.28;96.58
77574;BME280;66710;48.868;9.080;2024-03-07T03:50:12;98458.41;;;1.24;96.13
77574;BME280;66710;48.868;9.080;2024-03-07T03:52:38;98458.75;;;1.21;96.37
77574;BME280;66710;48.868;9.080;2024-03-07T03:55:04;98467.84;;;1.10;96.04
77574;BME280;66710;48.868;9.080;2024-03-07T03:57:31;98461.41;;;1.04;96.80
77574;BME280;66710;48.868;9.080;2024-03-07T03:59:56;98456.78;;;1.06;96.59
77574;BME280;66710;48.868;9.080;2024-03-07T04:02:22;98451.81;;;1.12;96.40
77574;BME280;66710;48.868;9.080;2024-03-07T04:04:51;98450.34;;;1.09;96.33
77574;BME280;66710;48.868;9.080;2024-03-07T04:07:20;98448.69;;;1.08;95.87
77574;BME280;66710;48.868;9.080;2024-03-07T04:09:46;98451.16;;;1.10;96.01
77574;BME280;66710;48.868;9.080;2024-03-07T04:12:12;98452.81;;;1.11;96.05
77574;BME280;66710;48.868;9.080;2024-03-07T04:14:41;98444.22;;;1.09;96.20
77574;BME280;66710;48.868;9.080;2024-03-07T04:17:07;98454.13;;;1.06;96.18
77574;BME280;66710;48.868;9.080;2024-03-07T04:19:36;98449.19;;;1.03;95.78
77574;BME280;66710;48.868;9.080;2024-03-07T04:22:03;98443.91;;;1.03;96.25
77574;BME280;66710;48.868;9.080;2024-03-07T04:24:30;98449.19;;;1.03;96.32
77574;BME280;66710;48.868;9.080;2024-03-07T04:26:58;98445.56;;;0.96;95.75
77574;BME280;66710;48.868;9.080;2024-03-07T04:29:23;98452.16;;;1.00;96.04
77574;BME280;66710;48.868;9.080;2024-03-07T04:31:49;98446.03;;;1.00;95.05
77574;BME280;66710;48.868;9.080;2024-03-07T04:34:14;98450.50;;;0.99;95.07
77574;BME280;66710;48.868;9.080;2024-03-07T04:36:40;98449.53;;;0.92;94.65
77574;BME280;66710;48.868;9.080;2024-03-07T04:39:06;98442.25;;;0.94;94.92
77574;BME280;66710;48.868;9.080;2024-03-07T04:41:39;98442.25;;;0.94;94.37
77574;BME280;66710;48.868;9.080;2024-03-07T04:44:05;98439.97;;;0.91;94.26
77574;BME280;66710;48.868;9.080;2024-03-07T04:46:30;98441.28;;;0.87;94.07
77574;BME280;66710;48.868;9.080;2024-03-07T04:48:55;98431.34;;;0.89;93.40
77574;BME280;66710;48.868;9.080;2024-03-07T04:51:22;98434.97;;;0.88;93.31
77574;BME280;66710;48.868;9.080;2024-03-07T04:53:47;98433.00;;;0.82;93.48
77574;BME280;66710;48.868;9.080;2024-03-07T04:56:13;98436.34;;;0.84;93.93
77574;BME280;66710;48.868;9.080;2024-03-07T04:58:39;98438.97;;;0.76;93.96
77574;BME280;66710;48.868;9.080;2024-03-07T05:01:04;98441.78;;;0.74;93.65
77574;BME280;66710;48.868;9.080;2024-03-07T05:03:30;98438.97;;;0.76;92.89
77574;BME280;66710;48.868;9.080;2024-03-07T05:05:55;98447.56;;;0.70;93.12
77574;BME280;66710;48.868;9.080;2024-03-07T05:08:20;98443.59;;;0.74;93.00
77574;BME280;66710;48.868;9.080;2024-03-07T05:10:45;98440.28;;;0.72;93.37
77574;BME280;66710;48.868;9.080;2024-03-07T05:13:11;98443.44;;;0.75;93.32
77574;BME280;66710;48.868;9.080;2024-03-07T05:15:36;98448.53;;;0.77;92.83
77574;BME280;66710;48.868;9.080;2024-03-07T05:18:02;98444.75;;;0.71;92.74
77574;BME280;66710;48.868;9.080;2024-03-07T05:20:27;98427.09;;;0.56;92.82
77574;BME280;66710;48.868;9.080;2024-03-07T05:22:53;98445.56;;;0.72;92.61
77574;BME280;66710;48.868;9.080;2024-03-07T05:25:20;98450.84;;;0.72;92.78
77574;BME280;66710;48.868;9.080;2024-03-07T05:27:47;98447.22;;;0.65;92.68
77574;BME280;66710;48.868;9.080;2024-03-07T05:30:15;98447.91;;;0.67;92.68
77574;BME280;66710;48.868;9.080;2024-03-07T05:32:40;98441.63;;;0.68;92.79
77574;BME280;66710;48.868;9.080;2024-03-07T05:35:06;98442.59;;;0.59;92.58
77574;BME280;66710;48.868;9.080;2024-03-07T05:37:32;98441.31;;;0.55;93.12
77574;BME280;66710;48.868;9.080;2024-03-07T05:39:57;98431.06;;;0.51;92.96
77574;BME280;66710;48.868;9.080;2024-03-07T05:42:23;98442.94;;;0.47;92.81
77574;BME280;66710;48.868;9.080;2024-03-07T05:44:50;98439.31;;;0.40;93.39
77574;BME280;66710;48.868;9.080;2024-03-07T05:47:15;98437.81;;;0.38;93.38
77574;BME280;66710;48.868;9.080;2024-03-07T05:49:42;98436.19;;;0.37;93.57
77574;BME280;66710;48.868;9.080;2024-03-07T05:52:07;98441.78;;;0.34;93.02
77574;BME280;66710;48.868;9.080;2024-03-07T05:54:33;98440.47;;;0.38;92.57
77574;BME280;66710;48.868;9.080;2024-03-07T05:56:59;98440.94;;;0.41;92.23
77574;BME280;66710;48.868;9.080;2024-03-07T05:59:25;98435.84;;;0.40;92.06
77574;BME280;66710;48.868;9.080;2024-03-07T06:01:50;98441.94;;;0.40;92.13
77574;BME280;66710;48.868;9.080;2024-03-07T06:04:17;98437.16;;;0.36;92.36
77574;BME280;66710;48.868;9.080;2024-03-07T06:06:43;98434.34;;;0.29;92.09
77574;BME280;66710;48.868;9.080;2024-03-07T06:09:09;98435.81;;;0.23;92.67
77574;BME280;66710;48.868;9.080;2024-03-07T06:11:35;98425.59;;;0.12;92.58
77574;BME280;66710;48.868;9.080;2024-03-07T06:14:05;98432.69;;;0.20;92.34
77574;BME280;66710;48.868;9.080;2024-03-07T06:16:36;98436.63;;;0.08;92.19
77574;BME280;66710;48.868;9.080;2024-03-07T06:19:02;98434.66;;;0.10;93.08
77574;BME280;66710;48.868;9.080;2024-03-07T06:21:28;98444.22;;;0.11;92.45
77574;BME280;66710;48.868;9.080;2024-03-07T06:23:55;98431.88;;;0.19;92.61
77574;BME280;66710;48.868;9.080;2024-03-07T06:26:28;98430.56;;;0.32;92.50
77574;BME280;66710;48.868;9.080;2024-03-07T06:29:05;98429.06;;;0.37;92.41
77574;BME280;66710;48.868;9.080;2024-03-07T06:31:31;98437.34;;;0.42;92.09
77574;BME280;66710;48.868;9.080;2024-03-07T06:33:56;98439.31;;;0.57;91.85
77574;BME280;66710;48.868;9.080;2024-03-07T06:36:22;98432.53;;;0.62;91.61
77574;BME280;66710;48.868;9.080;2024-03-07T06:38:48;98423.94;;;0.68;90.68
77574;BME280;66710;48.868;9.080;2024-03-07T06:41:14;98426.06;;;0.81;91.12
77574;BME280;66710;48.868;9.080;2024-03-07T06:43:39;98432.69;;;0.85;91.20
77574;BME280;66710;48.868;9.080;2024-03-07T06:46:04;98423.75;;;1.02;90.43
77574;BME280;66710;48.868;9.080;2024-03-07T06:48:31;98432.31;;;1.04;90.43
77574;BME280;66710;48.868;9.080;2024-03-07T06:50:56;98438.72;;;1.26;90.07
77574;BME280;66710;48.868;9.080;2024-03-07T06:53:22;98437.00;;;1.42;89.45
77574;BME280;66710;48.868;9.080;2024-03-07T06:55:51;98439.22;;;1.69;90.08
77574;BME280;66710;48.868;9.080;2024-03-07T06:58:19;98442.03;;;1.68;88.58
77574;BME280;66710;48.868;9.080;2024-03-07T07:00:44;98436.19;;;1.41;88.92
77574;BME280;66710;48.868;9.080;2024-03-07T07:03:11;98442.69;;;1.70;88.57
77574;BME280;66710;48.868;9.080;2024-03-07T07:05:39;98438.88;;;1.72;88.54
77574;BME280;66710;48.868;9.080;2024-03-07T07:08:06;98442.75;;;2.15;87.12
77574;BME280;66710;48.868;9.080;2024-03-07T07:10:32;98444.44;;;2.17;86.69
77574;BME280;66710;48.868;9.080;2024-03-07T07:12:58;98450.84;;;2.22;86.06
77574;BME280;66710;48.868;9.080;2024-03-07T07:15:23;98453.56;;;2.37;85.77
77574;BME280;66710;48.868;9.080;2024-03-07T07:17:49;98441.22;;;2.21;85.32
77574;BME280;66710;48.868;9.080;2024-03-07T07:20:16;98439.41;;;2.22;85.10
77574;BME280;66710;48.868;9.080;2024-03-07T07:22:46;98441.34;;;2.28;84.02
77574;BME280;66710;48.868;9.080;2024-03-07T07:25:13;98440.13;;;2.61;85.07
77574;BME280;66710;48.868;9.080;2024-03-07T07:27:48;98434.56;;;2.71;83.14
77574;BME280;66710;48.868;9.080;2024-03-07T07:30:15;98435.81;;;2.60;82.38
77574;BME280;66710;48.868;9.080;2024-03-07T07:32:42;98435.91;;;2.52;82.76
77574;BME280;66710;48.868;9.080;2024-03-07T07:35:08;98436.25;;;2.49;84.40
77574;BME280;66710;48.868;9.080;2024-03-07T07:37:45;98439.72;;;2.50;83.90
77574;BME280;66710;48.868;9.080;2024-03-07T07:40:12;98428.91;;;2.51;82.66
77574;BME280;66710;48.868;9.080;2024-03-07T07:42:40;98434.59;;;2.48;82.32
77574;BME280;66710;48.868;9.080;2024-03-07T07:45:15;98427.53;;;2.40;82.99
77574;BME280;66710;48.868;9.080;2024-03-07T07:47:44;98425.94;;;2.54;81.34
77574;BME280;66710;48.868;9.080;2024-03-07T07:50:11;98421.53;;;2.84;80.64
77574;BME280;66710;48.868;9.080;2024-03-07T07:52:43;98419.63;;;3.08;81.21
77574;BME280;66710;48.868;9.080;2024-03-07T07:55:08;98414.59;;;3.13;80.38
77574;BME280;66710;48.868;9.080;2024-03-07T07:57:50;98415.88;;;3.61;78.06
77574;BME280;66710;48.868;9.080;2024-03-07T08:00:19;98416.97;;;3.67;79.53
77574;BME280;66710;48.868;9.080;2024-03-07T08:02:53;98418.06;;;3.58;78.00
77574;BME280;66710;48.868;9.080;2024-03-07T08:05:22;98414.72;;;3.85;76.56
77574;BME280;66710;48.868;9.080;2024-03-07T08:07:49;98417.34;;;4.00;75.50
77574;BME280;66710;48.868;9.080;2024-03-07T08:10:19;98413.25;;;4.19;75.96
77574;BME280;66710;48.868;9.080;2024-03-07T08:12:46;98405.34;;;3.89;76.32
77574;BME280;66710;48.868;9.080;2024-03-07T08:15:12;98415.22;;;3.59;75.35
77574;BME280;66710;48.868;9.080;2024-03-07T08:17:42;98415.34;;;3.87;76.26
77574;BME280;66710;48.868;9.080;2024-03-07T08:20:10;98407.34;;;4.02;73.31
77574;BME280;66710;48.868;9.080;2024-03-07T08:22:37;98409.66;;;4.26;74.27
77574;BME280;66710;48.868;9.080;2024-03-07T08:25:03;98416.84;;;4.75;73.06
77574;BME280;66710;48.868;9.080;2024-03-07T08:27:34;98403.25;;;4.64;72.54
77574;BME280;66710;48.868;9.080;2024-03-07T08:29:59;98408.31;;;4.59;72.55
77574;BME280;66710;48.868;9.080;2024-03-07T08:32:24;98413.31;;;4.47;73.33
77574;BME280;66710;48.868;9.080;2024-03-07T08:34:51;98400.63;;;4.06;76.65
77574;BME280;66710;48.868;9.080;2024-03-07T08:37:22;98409.44;;;4.07;75.16
77574;BME280;66710;48.868;9.080;2024-03-07T08:39:48;98407.31;;;3.81;76.73
77574;BME280;66710;48.868;9.080;2024-03-07T08:42:13;98404.31;;;3.69;75.51
77574;BME280;66710;48.868;9.080;2024-03-07T08:44:38;98394.84;;;3.81;75.42
77574;BME280;66710;48.868;9.080;2024-03-07T08:47:05;98405.31;;;3.68;75.17
77574;BME280;66710;48.868;9.080;2024-03-07T08:49:30;98405.13;;;4.06;75.21
77574;BME280;66710;48.868;9.080;2024-03-07T08:51:55;98403.94;;;4.29;75.06
77574;BME280;66710;48.868;9.080;2024-03-07T08:54:21;98401.16;;;4.16;74.23
77574;BME280;66710;48.868;9.080;2024-03-07T08:56:46;98412.38;;;4.33;74.08
77574;BME280;66710;48.868;9.080;2024-03-07T08:59:11;98401.91;;;4.53;73.24
77574;BME280;66710;48.868;9.080;2024-03-07T09:01:41;98404.06;;;4.64;73.79
77574;BME280;66710;48.868;9.080;2024-03-07T09:04:08;98402.16;;;4.58;74.26
77574;BME280;66710;48.868;9.080;2024-03-07T09:06:34;98393.41;;;4.64;74.02
77574;BME280;66710;48.868;9.080;2024-03-07T09:08:59;98404.38;;;5.04;73.97
77574;BME280;66710;48.868;9.080;2024-03-07T09:11:24;98396.91;;;4.43;74.49
77574;BME280;66710;48.868;9.080;2024-03-07T09:13:50;98401.00;;;4.67;74.77
77574;BME280;66710;48.868;9.080;2024-03-07T09:16:15;98391.16;;;4.40;74.24
77574;BME280;66710;48.868;9.080;2024-03-07T09:18:40;98390.50;;;4.59;74.33
77574;BME280;66710;48.868;9.080;2024-03-07T09:21:06;98385.94;;;4.53;74.80
77574;BME280;66710;48.868;9.080;2024-03-07T09:23:31;98391.81;;;4.20;75.50
77574;BME280;66710;48.868;9.080;2024-03-07T09:25:56;98394.44;;;3.99;76.17
77574;BME280;66710;48.868;9.080;2024-03-07T09:28:23;98390.75;;;4.00;76.16
77574;BME280;66710;48.868;9.080;2024-03-07T09:30:49;98381.16;;;4.20;75.97
77574;BME280;66710;48.868;9.080;2024-03-07T09:33:14;98379.69;;;4.39;76.09
77574;BME280;66710;48.868;9.080;2024-03-07T09:35:41;98387.84;;;4.38;75.99
77574;BME280;66710;48.868;9.080;2024-03-07T09:38:07;98378.47;;;4.42;74.81
77574;BME280;66710;48.868;9.080;2024-03-07T09:40:32;98381.78;;;4.44;74.91
77574;BME280;66710;48.868;9.080;2024-03-07T09:43:00;98377.09;;;4.46;75.60
77574;BME280;66710;48.868;9.080;2024-03-07T09:45:29;98376.94;;;4.75;75.58
77574;BME280;66710;48.868;9.080;2024-03-07T09:47:55;98375.41;;;4.66;74.23
77574;BME280;66710;48.868;9.080;2024-03-07T09:50:22;98381.22;;;5.04;74.38
77574;BME280;66710;48.868;9.080;2024-03-07T09:52:48;98378.44;;;4.35;75.57
77574;BME280;66710;48.868;9.080;2024-03-07T09:55:18;98378.31;;;4.71;74.35
77574;BME280;66710;48.868;9.080;2024-03-07T09:57:48;98379.84;;;4.59;74.36
77574;BME280;66710;48.868;9.080;2024-03-07T10:00:19;98383.44;;;5.01;75.34
77574;BME280;66710;48.868;9.080;2024-03-07T10:03:05;98384.78;;;5.18;72.39
77574;BME280;66710;48.868;9.080;2024-03-07T10:05:31;98390.19;;;5.31;74.11
77574;BME280;66710;48.868;9.080;2024-03-07T10:07:58;98381.47;;;5.51;71.49
77574;BME280;66710;48.868;9.080;2024-03-07T10:10:24;98386.78;;;5.92;71.08
77574;BME280;66710;48.868;9.080;2024-03-07T10:12:49;98377.66;;;6.48;69.41
77574;BME280;66710;48.868;9.080;2024-03-07T10:15:15;98382.34;;;6.19;70.57
77574;BME280;66710;48.868;9.080;2024-03-07T10:17:42;98377.94;;;7.50;69.84
77574;BME280;66710;48.868;9.080;2024-03-07T10:20:08;98373.41;;;7.96;65.50
77574;BME280;66710;48.868;9.080;2024-03-07T10:22:38;98370.97;;;7.94;65.04
77574;BME280;66710;48.868;9.080;2024-03-07T10:25:04;98378.53;;;8.42;60.06
77574;BME280;66710;48.868;9.080;2024-03-07T10:27:30;98374.47;;;8.26;61.30
77574;BME280;66710;48.868;9.080;2024-03-07T10:29:55;98370.22;;;7.81;64.22
77574;BME280;66710;48.868;9.080;2024-03-07T10:32:23;98372.81;;;8.64;61.98
77574;BME280;66710;48.868;9.080;2024-03-07T10:34:51;98369.47;;;8.05;62.91
77574;BME280;66710;48.868;9.080;2024-03-07T10:37:17;98369.63;;;8.17;61.77
77574;BME280;66710;48.868;9.080;2024-03-07T10:39:43;98364.50;;;8.72;59.43
77574;BME280;66710;48.868;9.080;2024-03-07T10:42:13;98363.34;;;9.48;58.86
77574;BME280;66710;48.868;9.080;2024-03-07T10:44:43;98355.81;;;7.82;63.12
77574;BME280;66710;48.868;9.080;2024-03-07T10:47:13;98363.88;;;7.04;66.34
77574;BME280;66710;48.868;9.080;2024-03-07T10:53:36;98352.22;;;7.49;65.66
77574;BME280;66710;48.868;9.080;2024-03-07T10:59:11;98357.94;;;6.82;66.09
77574;BME280;66710;48.868;9.080;2024-03-07T11:01:47;98350.63;;;7.35;64.82
77574;BME280;66710;48.868;9.080;2024-03-07T11:04:16;98354.84;;;6.65;66.01
77574;BME280;66710;48.868;9.080;2024-03-07T11:06:43;98342.16;;;6.54;68.32
77574;BME280;66710;48.868;9.080;2024-03-07T11:09:10;98350.13;;;6.87;69.56
77574;BME280;66710;48.868;9.080;2024-03-07T11:11:39;98346.84;;;6.85;67.79
77574;BME280;66710;48.868;9.080;2024-03-07T11:14:11;98338.47;;;6.55;69.09
77574;BME280;66710;48.868;9.080;2024-03-07T11:16:39;98335.59;;;6.43;69.67
77574;BME280;66710;48.868;9.080;2024-03-07T11:19:19;98331.06;;;6.37;68.41
77574;BME280;66710;48.868;9.080;2024-03-07T11:21:46;98324.88;;;6.16;69.76
77574;BME280;66710;48.868;9.080;2024-03-07T11:26:57;98322.19;;;6.03;70.88
77574;BME280;66710;48.868;9.080;2024-03-07T11:29:47;98322.03;;;6.44;71.10
77574;BME280;66710;48.868;9.080;2024-03-07T11:32:17;98317.91;;;6.68;68.98
77574;BME280;66710;48.868;9.080;2024-03-07T11:34:46;98312.38;;;6.63;70.06
77574;BME280;66710;48.868;9.080;2024-03-07T11:37:17;98299.81;;;6.84;71.17
77574;BME280;66710;48.868;9.080;2024-03-07T11:39:50;98305.16;;;6.64;68.86
77574;BME280;66710;48.868;9.080;2024-03-07T11:42:27;98306.78;;;6.71;68.40
77574;BME280;66710;48.868;9.080;2024-03-07T11:44:54;98293.97;;;7.13;67.67
77574;BME280;66710;48.868;9.080;2024-03-07T11:47:22;98289.09;;;6.97;66.28
77574;BME280;66710;48.868;9.080;2024-03-07T11:49:49;98301.38;;;7.11;65.59
77574;BME280;66710;48.868;9.080;2024-03-07T11:52:15;98293.78;;;7.02;67.66
77574;BME280;66710;48.868;9.080;2024-03-07T11:54:42;98286.13;;;7.25;67.86
77574;BME280;66710;48.868;9.080;2024-03-07T11:57:17;98284.63;;;6.84;67.67
77574;BME280;66710;48.868;9.080;2024-03-07T11:59:45;98279.72;;;6.68;67.64
77574;BME280;66710;48.868;9.080;2024-03-07T12:02:14;98280.13;;;6.65;69.02
77574;BME280;66710;48.868;9.080;2024-03-07T12:04:46;98281.09;;;6.90;69.63
77574;BME280;66710;48.868;9.080;2024-03-07T12:07:11;98282.31;;;7.08;69.33
77574;BME280;66710;48.868;9.080;2024-03-07T12:09:38;98278.44;;;6.77;68.37
77574;BME280;66710;48.868;9.080;2024-03-07T12:12:05;98275.97;;;6.82;68.40
77574;BME280;66710;48.868;9.080;2024-03-07T12:14:31;98269.59;;;6.83;66.66
77574;BME280;66710;48.868;9.080;2024-03-07T12:16:56;98271.19;;;7.11;67.94
77574;BME280;66710;48.868;9.080;2024-03-07T12:19:23;98275.09;;;7.02;67.22
77574;BME280;66710;48.868;9.080;2024-03-07T12:21:48;98269.34;;;7.05;68.08
77574;BME280;66710;48.868;9.080;2024-03-07T12:24:14;98271.22;;;6.97;68.17
77574;BME280;66710;48.868;9.080;2024-03-07T12:26:41;98273.38;;;6.56;69.59
77574;BME280;66710;48.868;9.080;2024-03-07T12:29:11;98274.78;;;6.52;69.35
77574;BME280;66710;48.868;9.080;2024-03-07T12:31:39;98268.00;;;6.62;69.97
77574;BME280;66710;48.868;9.080;2024-03-07T12:34:05;98269.25;;;6.66;69.80
77574;BME280;66710;48.868;9.080;2024-03-07T12:36:31;98262.88;;;6.48;70.23
77574;BME280;66710;48.868;9.080;2024-03-07T12:39:03;98267.00;;;6.57;69.87
77574;BME280;66710;48.868;9.080;2024-03-07T12:41:49;98266.53;;;6.80;68.89
77574;BME280;66710;48.868;9.080;2024-03-07T12:44:18;98259.38;;;6.67;69.33
77574;BME280;66710;48.868;9.080;2024-03-07T12:46:46;98258.78;;;6.45;69.44
77574;BME280;66710;48.868;9.080;2024-03-07T12:49:11;98241.34;;;6.49;70.44
77574;BME280;66710;48.868;9.080;2024-03-07T12:51:40;98248.94;;;6.46;70.59
77574;BME280;66710;48.868;9.080;2024-03-07T12:54:07;98253.88;;;6.35;70.72
77574;BME280;66710;48.868;9.080;2024-03-07T12:56:37;98248.13;;;6.32;70.88
77574;BME280;66710;48.868;9.080;2024-03-07T12:59:05;98252.66;;;6.31;71.34
77574;BME280;66710;48.868;9.080;2024-03-07T13:01:35;98249.56;;;6.34;70.84
77574;BME280;66710;48.868;9.080;2024-03-07T13:04:05;98256.75;;;6.27;72.76
77574;BME280;66710;48.868;9.080;2024-03-07T13:06:33;98253.88;;;6.22;71.00
77574;BME280;66710;48.868;9.080;2024-03-07T13:08:59;98253.47;;;6.25;72.03
77574;BME280;66710;48.868;9.080;2024-03-07T13:11:24;98255.50;;;6.23;70.83
77574;BME280;66710;48.868;9.080;2024-03-07T13:13:53;98248.53;;;6.35;71.91
77574;BME280;66710;48.868;9.080;2024-03-07T13:16:18;98250.38;;;6.28;71.06
77574;BME280;66710;48.868;9.080;2024-03-07T13:18:43;98250.00;;;6.31;69.88